Time;durP1;ratioP1;P1;durP2;ratioP2;P2;SDS_P1;SDS_P2;PMS_P1;PMS_P2;Temp;Humidity;BMP_temperature;BMP_pressure;BME280_temperature;BME280_humidity;BME280_pressure;Samples;Min_cycle;Max_cycle;Signal;HPM_P1;HPM_P2
2022/09/09 00:00:18;;;;;;;;;;;;;;;17.48;100.00;97707.39;1719920;82;20159;-90
2022/09/09 00:02:52;;;;;;;;;;;;;;;17.48;100.00;97704.09;1720144;82;20186;-86
2022/09/09 00:05:31;;;;;;;;;;;;;;;17.49;100.00;97712.53;1705273;82;20151;-90
2022/09/09 00:07:59;;;;;;;;;;;;;;;17.47;100.00;97710.70;1719864;82;20521;-86
2022/09/09 00:10:28;;;;;;;;;;;;;;;17.47;100.00;97707.16;1709747;82;21063;-86
2022/09/09 00:13:04;;;;;;;;;;;;;;;17.44;100.00;97705.09;1701535;82;20148;-86
2022/09/09 00:15:42;;;;;;;;;;;;;;;17.43;100.00;97702.93;1742291;82;20194;-87
2022/09/09 00:18:29;;;;;;;;;;;;;;;17.41;100.00;97709.28;1744962;82;20524;-86
2022/09/09 00:21:07;;;;;;;;;;;;;;;17.39;100.00;97712.92;1728879;82;20171;-90
2022/09/09 00:23:40;;;;;;;;;;;;;;;17.38;100.00;97714.06;1723878;82;21325;-86
2022/09/09 00:26:33;;;;;;;;;;;;;;;17.36;100.00;97709.49;1743654;82;20201;-85
2022/09/09 00:29:09;;;;;;;;;;;;;;;17.36;100.00;97713.60;1720212;82;20471;-90
2022/09/09 00:31:37;;;;;;;;;;;;;;;17.30;100.00;97722.33;1726413;82;20477;-90
2022/09/09 00:34:21;;;;;;;;;;;;;;;17.23;100.00;97718.73;1745041;82;20196;-90
2022/09/09 00:36:48;;;;;;;;;;;;;;;17.22;100.00;97724.55;1745147;82;21061;-87
2022/09/09 00:39:32;;;;;;;;;;;;;;;17.18;100.00;97728.52;1744736;82;20194;-85
2022/09/09 00:42:22;;;;;;;;;;;;;;;17.19;100.00;97729.55;1734824;82;20163;-85
2022/09/09 00:45:12;;;;;;;;;;;;;;;17.22;100.00;97724.55;1724956;82;20206;-86
2022/09/09 00:47:45;;;;;;;;;;;;;;;17.21;100.00;97725.11;1756720;80;20593;-90
2022/09/09 00:50:17;;;;;;;;;;;;;;;17.17;100.00;97720.05;1718684;82;21080;-85
2022/09/09 00:53:04;;;;;;;;;;;;;;;17.15;100.00;97718.20;1711265;82;20185;-85
2022/09/09 00:55:49;;;;;;;;;;;;;;;17.14;100.00;97722.87;1728048;82;20193;-89
2022/09/09 00:58:14;;;;;;;;;;;;;;;17.15;100.00;97725.05;1744976;82;20237;-86
2022/09/09 01:00:48;;;;;;;;;;;;;;;17.11;100.00;97720.81;1744956;82;20204;-85
2022/09/09 01:03:37;;;;;;;;;;;;;;;17.09;100.00;97722.25;1722149;82;21247;-90
2022/09/09 01:06:24;;;;;;;;;;;;;;;17.06;100.00;97725.09;1720615;82;20163;-86
2022/09/09 01:08:53;;;;;;;;;;;;;;;17.04;100.00;97725.19;1727467;82;20312;-89
2022/09/09 01:11:27;;;;;;;;;;;;;;;16.99;100.00;97726.16;1696092;82;20181;-87
2022/09/09 01:14:00;;;;;;;;;;;;;;;16.99;100.00;97726.73;1720250;82;20155;-86
2022/09/09 01:16:26;;;;;;;;;;;;;;;16.98;100.00;97731.97;1720093;82;21184;-90
2022/09/09 01:18:52;;;;;;;;;;;;;;;16.94;100.00;97726.36;1720205;82;20181;-86
2022/09/09 01:21:37;;;;;;;;;;;;;;;16.93;100.00;97730.80;1732676;82;20179;-89
2022/09/09 01:24:18;;;;;;;;;;;;;;;16.89;100.00;97739.64;1716954;82;20140;-89
2022/09/09 01:26:45;;;;;;;;;;;;;;;16.84;100.00;97742.58;1745157;82;20192;-90
2022/09/09 01:29:15;;;;;;;;;;;;;;;16.79;100.00;97746.05;1744732;82;21094;-90
2022/09/09 01:31:55;;;;;;;;;;;;;;;16.71;100.00;97750.41;1745056;82;20151;-86
2022/09/09 01:34:21;;;;;;;;;;;;;;;16.67;100.00;97754.11;1745118;82;20473;-89
2022/09/09 01:37:05;;;;;;;;;;;;;;;16.62;100.00;97745.50;1745133;82;20385;-89
2022/09/09 01:39:32;;;;;;;;;;;;;;;16.55;100.00;97741.88;1742944;82;20205;-86
2022/09/09 01:41:57;;;;;;;;;;;;;;;16.52;100.00;97752.69;1720241;82;21132;-90
2022/09/09 01:44:23;;;;;;;;;;;;;;;16.51;100.00;97748.34;1732188;82;20192;-86
2022/09/09 01:46:49;;;;;;;;;;;;;;;16.49;100.00;97754.14;1743895;80;20550;-90
2022/09/09 01:49:15;;;;;;;;;;;;;;;16.49;100.00;97756.88;1751053;80;20171;-85
2022/09/09 01:51:41;;;;;;;;;;;;;;;16.50;100.00;97754.95;1690500;82;20464;-89
2022/09/09 01:54:07;;;;;;;;;;;;;;;16.49;100.00;97752.77;1727106;82;21160;-85
2022/09/09 01:56:42;;;;;;;;;;;;;;;16.48;100.00;97753.88;1737744;82;20239;-85
2022/09/09 01:59:44;;;;;;;;;;;;;;;16.47;100.00;97760.48;1744711;82;20186;-90
2022/09/09 02:02:18;;;;;;;;;;;;;;;16.43;100.00;97760.90;1745066;82;20186;-89
2022/09/09 02:04:51;;;;;;;;;;;;;;;16.43;100.00;97767.73;1730539;82;20334;-85
2022/09/09 02:07:27;;;;;;;;;;;;;;;16.43;100.00;97766.38;1745103;82;20633;-85
2022/09/09 02:09:59;;;;;;;;;;;;;;;16.37;100.00;97762.19;1717309;82;20567;-86
2022/09/09 02:12:25;;;;;;;;;;;;;;;16.39;100.00;97767.33;1720171;82;20201;-86
2022/09/09 02:14:54;;;;;;;;;;;;;;;16.40;100.00;97771.09;1720345;82;20138;-86
2022/09/09 02:17:24;;;;;;;;;;;;;;;16.39;100.00;97769.50;1733129;82;20191;-85
2022/09/09 02:19:53;;;;;;;;;;;;;;;16.39;100.00;97774.96;1724221;82;21138;-90
2022/09/09 02:22:21;;;;;;;;;;;;;;;16.39;100.00;97777.70;1745142;82;20194;-86
2022/09/09 02:24:47;;;;;;;;;;;;;;;16.40;100.00;97781.23;1723433;82;20546;-86
2022/09/09 02:27:12;;;;;;;;;;;;;;;16.41;100.00;97782.84;1721566;82;20555;-89
2022/09/09 02:29:42;;;;;;;;;;;;;;;16.42;100.00;97783.11;1726463;80;20234;-85
2022/09/09 02:32:16;;;;;;;;;;;;;;;16.42;100.00;97789.38;1720050;82;21298;-86
2022/09/09 02:34:49;;;;;;;;;;;;;;;16.44;100.00;97789.05;1726211;82;20536;-89
2022/09/09 02:37:15;;;;;;;;;;;;;;;16.45;100.00;97802.39;1722878;80;20503;-90
2022/09/09 02:39:41;;;;;;;;;;;;;;;16.44;100.00;97801.35;1722853;82;20558;-89
2022/09/09 02:42:08;;;;;;;;;;;;;;;16.42;100.00;97798.14;1720290;82;20194;-86
2022/09/09 02:44:34;;;;;;;;;;;;;;;16.42;100.00;97794.05;1720179;82;21191;-85
2022/09/09 02:47:18;;;;;;;;;;;;;;;16.42;100.00;97800.31;1740952;80;20179;-85
2022/09/09 02:50:12;;;;;;;;;;;;;;;16.42;100.00;97800.31;1737887;80;20196;-89
2022/09/09 02:52:58;;;;;;;;;;;;;;;16.40;100.00;97802.55;1724481;82;20161;-90
2022/09/09 02:55:28;;;;;;;;;;;;;;;16.35;100.00;97798.06;1709330;82;20170;-89
2022/09/09 02:57:54;;;;;;;;;;;;;;;16.34;100.00;97809.33;1699060;83;21329;-86
2022/09/09 03:00:27;;;;;;;;;;;;;;;16.36;100.00;97818.00;1719594;82;20190;-89
2022/09/09 03:02:53;;;;;;;;;;;;;;;16.33;100.00;97815.36;1738769;82;20193;-89
2022/09/09 03:05:19;;;;;;;;;;;;;;;16.31;100.00;97818.95;1680358;83;20191;-90
2022/09/09 03:07:45;;;;;;;;;;;;;;;16.30;100.00;97820.08;1719489;82;20190;-86
2022/09/09 03:10:10;;;;;;;;;;;;;;;16.30;100.00;97820.08;1718117;82;21821;-89
2022/09/09 03:12:36;;;;;;;;;;;;;;;16.31;100.00;97824.42;1718562;82;20177;-86
2022/09/09 03:15:02;;;;;;;;;;;;;;;16.34;100.00;97825.73;1724614;82;20208;-85
2022/09/09 03:17:27;;;;;;;;;;;;;;;16.35;100.00;97823.23;1745216;82;20268;-89
2022/09/09 03:19:54;;;;;;;;;;;;;;;16.35;100.00;97825.97;1739565;82;20165;-88
2022/09/09 03:22:21;;;;;;;;;;;;;;;16.39;100.00;97828.28;1720270;82;21081;-90
2022/09/09 03:24:47;;;;;;;;;;;;;;;16.39;100.00;97835.69;1720332;82;20133;-85
2022/09/09 03:27:14;;;;;;;;;;;;;;;16.39;100.00;97831.02;1720248;82;20166;-85
2022/09/09 03:29:40;;;;;;;;;;;;;;;16.35;100.00;97830.06;1720716;82;20143;-89
2022/09/09 03:32:05;;;;;;;;;;;;;;;16.35;100.00;97830.87;1745101;82;20662;-90
2022/09/09 03:34:31;;;;;;;;;;;;;;;16.38;100.00;97834.88;1745296;82;21711;-86
2022/09/09 03:36:57;;;;;;;;;;;;;;;16.38;100.00;97825.88;1728875;82;20240;-89
2022/09/09 03:39:23;;;;;;;;;;;;;;;16.39;100.00;97831.58;1745185;82;20303;-85
2022/09/09 03:41:48;;;;;;;;;;;;;;;16.35;100.00;97834.97;1745041;82;20208;-90
2022/09/09 03:44:14;;;;;;;;;;;;;;;16.33;100.00;97833.12;1745101;82;20220;-89
2022/09/09 03:46:40;;;;;;;;;;;;;;;16.32;100.00;97838.36;1701007;80;21094;-89
2022/09/09 03:49:06;;;;;;;;;;;;;;;16.31;100.00;97835.36;1755489;80;20191;-85
2022/09/09 03:51:36;;;;;;;;;;;;;;;16.34;100.00;97835.30;1709438;82;20290;-86
2022/09/09 03:54:00;;;;;;;;;;;;;;;16.31;100.00;97837.28;1704908;82;20207;-90
2022/09/09 03:56:26;;;;;;;;;;;;;;;16.32;100.00;97842.45;1741735;82;20199;-90
2022/09/09 03:58:52;;;;;;;;;;;;;;;16.33;100.00;97842.70;1745026;82;21083;-85
2022/09/09 04:01:17;;;;;;;;;;;;;;;16.31;100.00;97847.66;1727743;82;20189;-86
2022/09/09 04:03:44;;;;;;;;;;;;;;;16.32;100.00;97849.30;1725563;82;20513;-86
2022/09/09 04:06:11;;;;;;;;;;;;;;;16.32;100.00;97849.30;1726181;82;20154;-89
2022/09/09 04:08:38;;;;;;;;;;;;;;;16.31;100.00;97853.13;1715432;82;20416;-90
2022/09/09 04:11:06;;;;;;;;;;;;;;;16.27;100.00;97847.27;1698557;82;21217;-85
2022/09/09 04:13:33;;;;;;;;;;;;;;;16.25;100.00;97848.16;1724791;80;20163;-91
2022/09/09 04:16:00;;;;;;;;;;;;;;;16.23;100.00;97847.66;1718775;82;20203;-86
2022/09/09 04:18:26;;;;;;;;;;;;;;;16.24;100.00;97853.39;1720251;82;20159;-85
2022/09/09 04:20:52;;;;;;;;;;;;;;;16.23;100.00;97846.28;1717817;82;20508;-90
2022/09/09 04:23:20;;;;;;;;;;;;;;;16.23;100.00;97852.56;1720206;82;21788;-86
2022/09/09 04:25:48;;;;;;;;;;;;;;;16.24;100.00;97843.82;1720345;82;20163;-85
2022/09/09 04:28:15;;;;;;;;;;;;;;;16.22;100.00;97846.05;1720655;82;20502;-90
2022/09/09 04:30:41;;;;;;;;;;;;;;;16.18;100.00;97841.80;1745073;82;20193;-86
2022/09/09 04:33:07;;;;;;;;;;;;;;;16.15;100.00;97845.18;1745076;82;20186;-85
2022/09/09 04:35:33;;;;;;;;;;;;;;;16.15;100.00;97847.91;1721211;82;21034;-86
2022/09/09 04:37:59;;;;;;;;;;;;;;;16.16;100.00;97848.16;1720111;82;20723;-90
2022/09/09 04:40:25;;;;;;;;;;;;;;;16.21;100.00;97854.81;1720336;82;20197;-90
2022/09/09 04:42:50;;;;;;;;;;;;;;;16.22;100.00;97848.78;1720313;82;20166;-86
2022/09/09 04:45:16;;;;;;;;;;;;;;;16.17;100.00;97853.86;1730159;82;20201;-86
2022/09/09 04:47:42;;;;;;;;;;;;;;;16.19;100.00;97852.97;1725810;82;21078;-85
2022/09/09 04:50:08;;;;;;;;;;;;;;;16.21;100.00;97860.84;1719422;82;20197;-85
2022/09/09 04:52:35;;;;;;;;;;;;;;;16.20;100.00;97864.14;1736306;82;20479;-86
2022/09/09 04:55:01;;;;;;;;;;;;;;;16.25;100.00;97867.30;1745151;82;20193;-90
2022/09/09 04:57:28;;;;;;;;;;;;;;;16.29;100.00;97865.52;1723381;82;20176;-90
2022/09/09 04:59:54;;;;;;;;;;;;;;;16.32;100.00;97858.03;1725625;82;21104;-90
2022/09/09 05:02:20;;;;;;;;;;;;;;;16.35;100.00;97860.95;1705302;82;20176;-86
2022/09/09 05:04:46;;;;;;;;;;;;;;;16.40;100.00;97861.34;1723870;82;20212;-85
2022/09/09 05:07:11;;;;;;;;;;;;;;;16.42;100.00;97852.27;1738635;82;20197;-90
2022/09/09 05:09:37;;;;;;;;;;;;;;;16.48;100.00;97854.26;1722421;82;20181;-90
2022/09/09 05:12:04;;;;;;;;;;;;;;;16.51;100.00;97863.21;1731546;82;21082;-89
2022/09/09 05:14:29;;;;;;;;;;;;;;;16.55;100.00;97867.70;1718816;82;20186;-87
2022/09/09 05:16:56;;;;;;;;;;;;;;;16.62;100.00;97861.75;1708910;82;20195;-91
2022/09/09 05:19:21;;;;;;;;;;;;;;;16.72;100.00;97855.97;1717422;82;20158;-90
2022/09/09 05:21:47;;;;;;;;;;;;;;;16.73;100.00;97854.84;1745085;82;20184;-87
2022/09/09 05:24:13;;;;;;;;;;;;;;;16.79;100.00;97855.48;1744900;82;21191;-87
2022/09/09 05:26:39;;;;;;;;;;;;;;;16.83;100.00;97857.23;1721251;82;20236;-90
2022/09/09 05:29:05;;;;;;;;;;;;;;;16.85;100.00;97867.31;1720017;82;20193;-85
2022/09/09 05:31:32;;;;;;;;;;;;;;;16.87;100.00;97865.05;1728536;82;20240;-85
2022/09/09 05:33:59;;;;;;;;;;;;;;;16.88;100.00;97868.03;1728873;82;20226;-85
2022/09/09 05:36:24;;;;;;;;;;;;;;;16.88;100.00;97872.70;1715178;82;21164;-91
2022/09/09 05:38:50;;;;;;;;;;;;;;;16.85;100.00;97869.25;1706682;82;20264;-90
2022/09/09 05:41:17;;;;;;;;;;;;;;;16.86;100.00;97875.77;1742085;82;20315;-90
2022/09/09 05:43:49;;;;;;;;;;;;;;;16.89;100.00;97879.78;1716050;82;20530;-90
2022/09/09 05:46:17;;;;;;;;;;;;;;;16.86;100.00;97873.03;1718409;80;36825;-90
2022/09/09 05:48:46;;;;;;;;;;;;;;;16.91;100.00;97884.35;1730600;80;21308;-90
2022/09/09 05:51:15;;;;;;;;;;;;;;;16.97;100.00;97890.47;1720331;82;20199;-90
2022/09/09 05:53:41;;;;;;;;;;;;;;;17.05;100.00;97884.19;1693988;82;20233;-89
2022/09/09 05:56:12;;;;;;;;;;;;;;;17.18;100.00;97888.67;1720938;82;20232;-85
2022/09/09 05:58:38;;;;;;;;;;;;;;;17.32;100.00;97893.38;1730995;82;20449;-90
2022/09/09 06:01:08;;;;;;;;;;;;;;;17.45;100.00;97899.23;1724782;82;22075;-90
2022/09/09 06:03:35;;;;;;;;;;;;;;;17.62;100.00;97896.99;1722769;80;20210;-89
2022/09/09 06:06:05;;;;;;;;;;;;;;;17.74;100.00;97897.13;1724640;82;20259;-85
2022/09/09 06:08:30;;;;;;;;;;;;;;;17.86;100.00;97899.72;1721019;82;20207;-86
2022/09/09 06:11:02;;;;;;;;;;;;;;;17.98;100.00;97897.09;1723303;82;20260;-86
2022/09/09 06:13:28;;;;;;;;;;;;;;;17.98;100.00;97898.47;1727866;82;21181;-88
2022/09/09 06:15:54;;;;;;;;;;;;;;;17.98;100.00;97900.64;1727460;80;20199;-89
2022/09/09 06:18:20;;;;;;;;;;;;;;;18.06;100.00;97900.36;1726370;82;20493;-87
2022/09/09 06:20:56;;;;;;;;;;;;;;;18.16;100.00;97906.02;1742118;82;20586;-88
2022/09/09 06:23:22;;;;;;;;;;;;;;;18.32;100.00;97900.20;1717792;82;20226;-86
2022/09/09 06:25:48;;;;;;;;;;;;;;;18.25;100.00;97899.34;1726200;82;21038;-90
2022/09/09 06:28:15;;;;;;;;;;;;;;;18.31;100.00;97897.22;1711177;80;20547;-89
2022/09/09 06:30:42;;;;;;;;;;;;;;;18.37;100.00;97901.92;1721295;82;20177;-86
2022/09/09 06:33:09;;;;;;;;;;;;;;;18.46;100.00;97895.27;1724699;82;20220;-90
2022/09/09 06:35:35;;;;;;;;;;;;;;;18.56;100.00;97889.37;1716306;82;20192;-90
2022/09/09 06:38:00;;;;;;;;;;;;;;;18.66;100.00;97894.25;1730930;80;21161;-89
2022/09/09 06:40:26;;;;;;;;;;;;;;;18.82;100.00;97897.42;1721248;82;20204;-86
2022/09/09 06:42:52;;;;;;;;;;;;;;;19.12;100.00;97896.72;1722127;82;20303;-86
2022/09/09 06:45:18;;;;;;;;;;;;;;;19.53;100.00;97892.25;1722388;82;20252;-86
2022/09/09 06:47:44;;;;;;;;;;;;;;;19.85;100.00;97888.42;1708589;82;20188;-91
2022/09/09 06:50:10;;;;;;;;;;;;;;;20.21;100.00;97891.72;1724385;80;20987;-86
2022/09/09 06:52:36;;;;;;;;;;;;;;;20.72;100.00;97889.34;1723844;82;20168;-86
2022/09/09 06:55:03;;;;;;;;;;;;;;;21.19;100.00;97889.48;1721188;82;20179;-86
2022/09/09 06:57:29;;;;;;;;;;;;;;;21.83;100.00;97887.04;1726235;82;20448;-86
2022/09/09 06:59:55;;;;;;;;;;;;;;;22.11;87.88;97891.09;1724918;82;20648;-89
2022/09/09 07:02:21;;;;;;;;;;;;;;;22.45;81.87;97885.36;1720822;80;22441;-92
2022/09/09 07:04:47;;;;;;;;;;;;;;;22.87;84.89;97883.89;1731872;82;20292;-86
2022/09/09 07:07:15;;;;;;;;;;;;;;;23.01;78.51;97885.58;1720188;82;20235;-92
2022/09/09 07:09:40;;;;;;;;;;;;;;;23.62;84.92;97884.17;1723719;82;20638;-87
2022/09/09 07:12:06;;;;;;;;;;;;;;;23.88;76.86;97879.86;1723436;82;20309;-92
2022/09/09 07:14:33;;;;;;;;;;;;;;;24.44;84.54;97871.66;1722796;80;21159;-87
2022/09/09 07:17:00;;;;;;;;;;;;;;;24.53;79.81;97874.73;1722217;82;20271;-87
2022/09/09 07:19:25;;;;;;;;;;;;;;;24.32;82.23;97879.37;1724097;82;20535;-91
2022/09/09 07:21:51;;;;;;;;;;;;;;;25.11;86.75;97871.50;1722891;82;20203;-92
2022/09/09 07:24:17;;;;;;;;;;;;;;;25.46;82.92;97874.64;1720982;82;20183;-92
2022/09/09 07:26:43;;;;;;;;;;;;;;;25.53;77.93;97874.72;1731232;80;21055;-91
2022/09/09 07:29:09;;;;;;;;;;;;;;;25.46;77.56;97877.41;1725382;82;20214;-87
2022/09/09 07:31:36;;;;;;;;;;;;;;;24.87;78.52;97879.73;1724874;82;20227;-92
2022/09/09 07:34:03;;;;;;;;;;;;;;;24.61;77.64;97881.38;1725144;82;20192;-86
2022/09/09 07:36:33;;;;;;;;;;;;;;;24.66;72.21;97884.39;1722839;82;20302;-91
2022/09/09 07:39:01;;;;;;;;;;;;;;;24.25;64.14;97885.56;1723135;80;21135;-87
2022/09/09 07:41:30;;;;;;;;;;;;;;;24.69;62.91;97878.88;1724831;82;21075;-86
2022/09/09 07:43:55;;;;;;;;;;;;;;;25.54;67.68;97883.23;1724463;82;20228;-92
2022/09/09 07:46:25;;;;;;;;;;;;;;;26.51;70.71;97889.02;1722610;82;20729;-87
2022/09/09 07:48:55;;;;;;;;;;;;;;;26.92;70.13;97879.10;1684415;82;20167;-86
2022/09/09 07:51:35;;;;;;;;;;;;;;;27.55;65.99;97883.27;1719806;80;21813;-92
2022/09/09 07:54:03;;;;;;;;;;;;;;;27.82;65.00;97880.34;1724096;82;20314;-92
2022/09/09 07:56:29;;;;;;;;;;;;;;;27.89;58.98;97878.75;1719054;82;20201;-92
2022/09/09 07:58:55;;;;;;;;;;;;;;;28.36;55.68;97882.50;1726783;82;20787;-92
2022/09/09 08:01:24;;;;;;;;;;;;;;;28.61;52.38;97882.45;1728534;82;20449;-87
2022/09/09 08:03:56;;;;;;;;;;;;;;;29.07;53.54;97881.53;1727679;80;21125;-87
2022/09/09 08:06:22;;;;;;;;;;;;;;;29.61;49.32;97876.45;1725261;82;20588;-92
2022/09/09 08:08:50;;;;;;;;;;;;;;;30.02;48.76;97872.34;1726562;82;20204;-87
2022/09/09 08:11:16;;;;;;;;;;;;;;;30.85;49.82;97876.52;1729348;82;20274;-87
2022/09/09 08:13:42;;;;;;;;;;;;;;;30.83;44.29;97878.95;1730548;82;20571;-87
2022/09/09 08:16:11;;;;;;;;;;;;;;;31.25;44.54;97883.84;1734044;80;21780;-92
2022/09/09 08:18:38;;;;;;;;;;;;;;;31.53;41.13;97877.04;1722493;82;20180;-88
2022/09/09 08:21:09;;;;;;;;;;;;;;;31.44;40.83;97880.36;1722303;82;20217;-87
2022/09/09 08:23:36;;;;;;;;;;;;;;;31.78;40.02;97883.69;1726433;82;20248;-92
2022/09/09 08:26:16;;;;;;;;;;;;;;;30.64;39.19;97880.34;1724439;82;20208;-90
2022/09/09 08:28:42;;;;;;;;;;;;;;;31.25;38.03;97885.23;1726971;80;21114;-88
2022/09/09 08:31:16;;;;;;;;;;;;;;;31.58;40.40;97883.58;1718008;82;20200;-90
2022/09/09 08:33:43;;;;;;;;;;;;;;;31.64;40.32;97886.88;1727416;82;20176;-87
2022/09/09 08:36:10;;;;;;;;;;;;;;;31.00;37.15;97890.52;1720210;82;20220;-87
2022/09/09 08:38:37;;;;;;;;;;;;;;;32.01;39.88;97897.73;1725731;82;21292;-93
2022/09/09 08:41:21;;;;;;;;;;;;;;;31.44;36.46;97888.77;1731948;80;21892;-92
2022/09/09 08:43:47;;;;;;;;;;;;;;;31.99;38.71;97888.35;1726711;82;20212;-92
2022/09/09 08:46:23;;;;;;;;;;;;;;;31.29;38.08;97890.20;1721064;80;20240;-92
2022/09/09 08:48:59;;;;;;;;;;;;;;;31.58;36.00;97886.38;1726154;82;20725;-92
2022/09/09 08:51:26;;;;;;;;;;;;;;;33.14;37.90;97889.05;1660726;84;20166;-92
2022/09/09 08:53:53;;;;;;;;;;;;;;;31.34;36.48;97884.91;1660700;85;21297;-92
2022/09/09 08:56:21;;;;;;;;;;;;;;;29.96;40.69;97892.13;1725562;82;20190;-87
2022/09/09 08:58:52;;;;;;;;;;;;;;;28.62;42.72;97900.76;1701744;82;20587;-88
2022/09/09 09:01:46;;;;;;;;;;;;;;;29.32;42.79;97899.53;1731014;82;20231;-92
2022/09/09 09:04:35;;;;;;;;;;;;;;;30.26;42.09;97890.73;1724004;80;20214;-87
2022/09/09 09:07:22;;;;;;;;;;;;;;;28.52;41.71;97891.03;1732311;82;21128;-92
2022/09/09 09:10:11;;;;;;;;;;;;;;;27.44;44.15;97886.04;1718422;82;20230;-86
2022/09/09 09:12:40;;;;;;;;;;;;;;;26.53;47.66;97885.25;1722806;82;20291;-91
2022/09/09 09:15:20;;;;;;;;;;;;;;;25.26;49.53;97889.89;1720248;80;20208;-87
2022/09/09 09:17:46;;;;;;;;;;;;;;;24.70;51.85;97886.05;1729370;82;20288;-87
2022/09/09 09:20:16;;;;;;;;;;;;;;;24.21;53.55;97891.65;1724941;82;21039;-92
2022/09/09 09:22:50;;;;;;;;;;;;;;;23.54;53.15;97888.53;1727351;82;20564;-86
2022/09/09 09:25:19;;;;;;;;;;;;;;;23.30;54.16;97886.91;1718534;82;20211;-86
2022/09/09 09:27:48;;;;;;;;;;;;;;;23.23;55.33;97881.24;1726523;80;20259;-92
2022/09/09 09:30:22;;;;;;;;;;;;;;;23.09;55.78;97880.41;1722081;82;20227;-86
2022/09/09 09:32:54;;;;;;;;;;;;;;;23.10;54.52;97884.77;1730566;82;21220;-86
2022/09/09 09:35:20;;;;;;;;;;;;;;;22.71;58.26;97886.11;1718183;82;20235;-92
2022/09/09 09:37:46;;;;;;;;;;;;;;;22.60;59.88;97880.16;1719874;82;20808;-91
2022/09/09 09:40:14;;;;;;;;;;;;;;;22.61;60.06;97872.88;1725158;80;20255;-86
2022/09/09 09:43:01;;;;;;;;;;;;;;;22.56;59.32;97867.66;1724485;82;20221;-86
2022/09/09 09:45:45;;;;;;;;;;;;;;;22.53;60.33;97870.55;1727767;82;21199;-86
2022/09/09 09:48:12;;;;;;;;;;;;;;;22.38;63.09;97871.97;1728034;80;20480;-91
2022/09/09 09:50:58;;;;;;;;;;;;;;;22.51;60.34;97867.36;1716771;82;20803;-86
2022/09/09 09:53:25;;;;;;;;;;;;;;;22.50;59.38;97867.14;1720839;80;20188;-91
2022/09/09 09:56:06;;;;;;;;;;;;;;;22.43;59.36;97864.80;1724018;82;20201;-90
2022/09/09 09:58:38;;;;;;;;;;;;;;;22.43;58.39;97870.32;1732161;82;21065;-92
2022/09/09 10:01:04;;;;;;;;;;;;;;;22.42;57.38;97869.52;1716976;82;20202;-92
2022/09/09 10:03:32;;;;;;;;;;;;;;;22.49;58.28;97870.27;1721007;80;20254;-86
2022/09/09 10:05:57;;;;;;;;;;;;;;;22.57;58.21;97872.02;1719666;82;20637;-85
2022/09/09 10:08:24;;;;;;;;;;;;;;;22.68;58.01;97870.27;1724558;82;20343;-92
2022/09/09 10:11:00;;;;;;;;;;;;;;;22.79;58.06;97878.19;1729504;82;21156;-85
2022/09/09 10:13:39;;;;;;;;;;;;;;;22.89;59.54;97874.66;1725034;82;20196;-92
2022/09/09 10:16:08;;;;;;;;;;;;;;;22.94;58.22;97875.76;1723882;80;20472;-92
2022/09/09 10:18:46;;;;;;;;;;;;;;;23.02;57.54;97876.91;1721282;82;20528;-91
2022/09/09 10:21:28;;;;;;;;;;;;;;;23.10;57.59;97879.82;1727956;82;20221;-91
2022/09/09 10:24:29;;;;;;;;;;;;;;;23.15;56.11;97880.30;1722984;82;21133;-86
2022/09/09 10:27:13;;;;;;;;;;;;;;;23.15;56.30;97876.74;1723588;82;20197;-85
2022/09/09 10:29:55;;;;;;;;;;;;;;;22.92;56.80;97883.62;1704087;82;20237;-85
2022/09/09 10:32:52;;;;;;;;;;;;;;;23.05;56.57;97882.28;1719173;82;20188;-91
2022/09/09 10:35:34;;;;;;;;;;;;;;;23.19;56.75;97876.24;1727381;82;20215;-92
2022/09/09 10:38:24;;;;;;;;;;;;;;;22.99;54.85;97879.62;1722408;82;21234;-88
2022/09/09 10:40:57;;;;;;;;;;;;;;;22.61;55.08;97878.98;1718054;80;20519;-92
2022/09/09 10:43:41;;;;;;;;;;;;;;;22.37;57.08;97880.04;1728647;81;20288;-92
2022/09/09 10:46:35;;;;;;;;;;;;;;;22.28;56.85;97876.09;1729165;82;20677;-92
2022/09/09 10:49:14;;;;;;;;;;;;;;;22.58;57.74;97876.96;1728942;82;20228;-85
2022/09/09 10:52:06;;;;;;;;;;;;;;;22.51;55.95;97871.50;1728918;80;21864;-86
2022/09/09 10:54:39;;;;;;;;;;;;;;;22.55;55.02;97866.03;1726133;82;20197;-85
2022/09/09 10:57:11;;;;;;;;;;;;;;;22.49;53.62;97873.83;1723172;82;20673;-93
2022/09/09 10:59:40;;;;;;;;;;;;;;;22.61;54.92;97878.98;1721756;80;20247;-92
2022/09/09 11:02:17;;;;;;;;;;;;;;;22.64;53.81;97880.43;1723220;82;20196;-92
2022/09/09 11:04:45;;;;;;;;;;;;;;;22.59;54.86;97882.70;1721193;80;21071;-92
2022/09/09 11:07:14;;;;;;;;;;;;;;;22.47;54.83;97880.30;1724344;82;20222;-86
2022/09/09 11:09:43;;;;;;;;;;;;;;;22.47;55.16;97878.92;1727521;80;20349;-85
2022/09/09 11:12:10;;;;;;;;;;;;;;;22.46;55.62;97879.25;1724319;82;20204;-86
2022/09/09 11:14:44;;;;;;;;;;;;;;;22.58;55.83;97876.38;1704898;82;20473;-86
2022/09/09 11:17:13;;;;;;;;;;;;;;;22.69;56.09;97881.54;1724842;80;22027;-92
2022/09/09 11:19:39;;;;;;;;;;;;;;;22.75;55.15;97884.23;1722601;82;20625;-86
2022/09/09 11:22:09;;;;;;;;;;;;;;;22.78;55.02;97885.47;1725475;82;20228;-92
2022/09/09 11:24:40;;;;;;;;;;;;;;;22.78;53.53;97882.70;1722714;82;20179;-85
2022/09/09 11:27:09;;;;;;;;;;;;;;;22.64;54.20;97873.53;1723938;82;20200;-92
2022/09/09 11:29:44;;;;;;;;;;;;;;;22.58;52.70;97886.04;1724123;80;21766;-92
2022/09/09 11:32:19;;;;;;;;;;;;;;;22.59;52.23;97880.73;1678594;84;20418;-85
2022/09/09 11:34:56;;;;;;;;;;;;;;;22.70;53.63;97874.84;1661390;85;20904;-85
2022/09/09 11:37:26;;;;;;;;;;;;;;;22.78;54.00;97884.88;1721588;82;20306;-85
2022/09/09 11:40:10;;;;;;;;;;;;;;;22.92;52.94;97883.03;1721127;82;20290;-85
2022/09/09 11:42:36;;;;;;;;;;;;;;;22.95;54.03;97881.50;1727845;82;21135;-92
2022/09/09 11:45:13;;;;;;;;;;;;;;;23.05;55.09;97872.03;1726175;82;20192;-92
2022/09/09 11:47:39;;;;;;;;;;;;;;;23.08;54.23;97865.79;1720616;82;20597;-92
2022/09/09 11:50:18;;;;;;;;;;;;;;;23.18;54.24;97871.89;1729198;82;20300;-85
2022/09/09 11:52:49;;;;;;;;;;;;;;;23.26;53.07;97869.47;1730087;80;20216;-92
2022/09/09 11:55:32;;;;;;;;;;;;;;;23.35;54.08;97867.27;1722182;82;21091;-92
2022/09/09 11:58:05;;;;;;;;;;;;;;;23.50;53.83;97875.21;1725400;82;20536;-91
2022/09/09 12:00:37;;;;;;;;;;;;;;;23.55;53.09;97870.77;1722836;82;20213;-91
2022/09/09 12:03:03;;;;;;;;;;;;;;;23.63;53.60;97871.94;1725967;81;20186;-92
2022/09/09 12:05:42;;;;;;;;;;;;;;;23.73;51.20;97866.37;1725753;80;20298;-92
2022/09/09 12:08:13;;;;;;;;;;;;;;;23.71;51.16;97869.30;1728859;82;22023;-93
2022/09/09 12:10:39;;;;;;;;;;;;;;;23.52;51.80;97872.91;1720900;82;20282;-85
2022/09/09 12:13:17;;;;;;;;;;;;;;;23.48;51.99;97874.20;1725954;82;20215;-92
2022/09/09 12:15:50;;;;;;;;;;;;;;;23.55;52.66;97879.06;1725809;82;20231;-92
2022/09/09 12:18:25;;;;;;;;;;;;;;;23.33;52.66;97881.47;1728195;80;20190;-85
2022/09/09 12:20:54;;;;;;;;;;;;;;;23.34;52.15;97878.11;1719382;82;21150;-85
2022/09/09 12:23:53;;;;;;;;;;;;;;;23.23;51.62;97883.42;1726158;82;20514;-93
2022/09/09 12:26:31;;;;;;;;;;;;;;;23.40;53.74;97882.73;1720171;82;20213;-93
2022/09/09 12:29:19;;;;;;;;;;;;;;;23.57;53.16;97881.67;1728360;80;20186;-86
2022/09/09 12:31:51;;;;;;;;;;;;;;;23.67;51.55;97890.55;1720831;82;20220;-85
2022/09/09 12:34:37;;;;;;;;;;;;;;;23.83;52.51;97894.78;1725310;82;21231;-92
2022/09/09 12:37:07;;;;;;;;;;;;;;;23.74;51.71;97894.83;1728328;82;20241;-91
2022/09/09 12:39:41;;;;;;;;;;;;;;;23.51;52.15;97881.78;1725714;82;20255;-86
2022/09/09 12:42:18;;;;;;;;;;;;;;;23.76;52.97;97878.69;1723507;80;20490;-85
2022/09/09 12:44:57;;;;;;;;;;;;;;;23.73;51.49;97880.78;1726505;82;20189;-91
2022/09/09 12:47:28;;;;;;;;;;;;;;;23.71;52.61;97877.02;1729989;80;21080;-93
2022/09/09 12:49:56;;;;;;;;;;;;;;;23.52;51.77;97868.75;1722604;82;20275;-92
2022/09/09 12:52:26;;;;;;;;;;;;;;;23.33;51.67;97864.08;1726027;82;20185;-85
2022/09/09 12:54:53;;;;;;;;;;;;;;;23.24;52.18;97864.28;1724888;81;20207;-92
2022/09/09 12:57:20;;;;;;;;;;;;;;;23.16;52.40;97867.28;1722391;82;20586;-93
2022/09/09 12:59:45;;;;;;;;;;;;;;;23.34;53.46;97867.05;1725885;82;21665;-85